Helena, New York
Current Conditions -  °F | °C
As of 8:53 AM on Monday 24 Nov 2014 (Local Time) from KMSS Reporting Station
Overcast Overcast  
Wind Chill: 56°   Ceiling: 4700
Heat Index: 56°   Visibility: 10mi
Dew Point: 50°   Wind: 14mph
Humidity: 80%   Direction: 180°S
Pressure: 29.37"   Gusts: NA
Location:  44.92°N, 74.73°W
Report Text: KMSS 241353Z AUTO 18012KT 10SM FEW039 BKN047 OVC090 13/10 A2937 RMK AO2 PK WND 17027/1255 RAB06E15B37E50 SLP949 P0000 T01330100
Loading
Personal Weather Stations






























Interactive Weather Map New forecast layout! Learn more

10-Day Weather Forecast

Advertisements
Track Severe Weather on mobile